WEATHER DATA

YESTERDAY
Time Temp. Dewp. Hum. Wind dir Wind speed Wind gust Bar. 1h Prec. 24h Prec.
00:03 22.4 18 76 90 0.3 1.1 1013.4 0.0000 0.0000
00:12 22.4 18 76 180 0.3 1.1 1013.4 0.0000 0.0000
00:22 22.3 17.9 76 90 0.3 0.8 1013.3 0.0000 0.0000
00:32 22.2 18 77 155 0.3 0.8 1013.3 0.0000 0.0000
00:43 22.1 17.9 77 135 0.3 0.8 1013.2 0.0000 0.0000
00:52 22 17.8 77 149 0.3 1.1 1013.2 0.0000 0.0000
01:02 21.9 17.9 78 116 0.6 1.4 1013.2 0.0000 0.0000
01:13 21.8 17.8 78 123 0.3 1.1 1013.1 0.0000 0.0000
01:23 21.7 17.7 78 90 0.3 0.8 1013.3 0.0000 0.0000
01:33 21.5 17.7 79 90 0.3 0.8 1013.1 0.0000 0.0000
01:43 21.3 17.5 79 45 0.3 0.8 1013.1 0.0000 0.0000
01:53 21.2 17.6 80 90 0.3 1.1 1013 0.0000 0.0000
02:03 21.2 17.8 81 129 0.6 1.7 1013 0.0000 0.0000
02:13 21.4 18 81 122 0.8 1.7 1013.1 0.0000 0.0000
02:23 21.7 18.3 81 130 0.6 1.7 1013 0.0000 0.0000
02:33 21.9 18.5 81 133 0.8 2.2 1013.1 0.0000 0.0000
02:43 22.1 18.5 80 127 0.6 1.9 1013.1 0.0000 0.0000
02:53 22.3 18.7 80 130 0.8 1.9 1013.1 0.0000 0.0000
03:04 22.4 18.8 80 135 0.6 0.8 1013.1 0.0000 0.0000
03:13 22.4 18.6 79 165 0.6 1.4 1013 0.0000 0.0000
03:23 22.4 18.6 79 130 0.6 1.4 1013.1 0.0000 0.0000
03:34 22.3 18.7 80 122 0.8 1.7 1013 0.0000 0.0000
03:44 22.4 18.8 80 140 0.6 1.7 1012.9 0.0000 0.0000
03:54 22.4 18.8 80 141 0.6 1.4 1013 0.0000 0.0000
04:04 22.4 18.8 80 149 0.6 1.7 1012.9 0.0000 0.0000
04:14 22.5 18.9 80 194 0.6 1.4 1013 0.0000 0.0000
04:24 22.6 18.8 79 120 0.6 1.4 1013 0.0000 0.0000
04:34 22.7 18.7 78 123 0.6 1.4 1012.8 0.0000 0.0000
04:44 22.7 18.7 78 144 0.6 1.1 1012.8 0.0000 0.0000
04:54 22.7 18.7 78 236 0.3 1.1 1013 0.0000 0.0000
04:58 22.7 18.7 78 230 0.3 1.4 1012.9 0.0000 0.0000
05:08 22.8 18.6 77 233 0.6 1.4 1012.8 0.0000 0.0000
05:19 22.9 18.4 76 168 0.3 0.8 1012.9 0.0000 0.0000
05:29 22.9 18.4 76 156 0.6 1.1 1013 0.0000 0.0000
05:39 22.9 18.4 76 165 0.6 1.7 1012.9 0.0000 0.0000
05:49 22.8 18.4 76 18 0.3 0.8 1013 0.0000 0.0000
05:59 22.6 18.4 77 23 0.3 0.8 1013.1 0.0000 0.0000
06:09 22.4 18.2 77 333 0.3 0.8 1013.1 0.0000 0.0000
06:19 22.4 18.4 78 90 0.3 0.6 1013 0.0000 0.0000
06:29 22.6 18.4 77 129 0.3 1.1 1013 0.0000 0.0000
06:39 22.8 18.6 77 90 0.3 0.8 1013 0.0000 0.0000
06:49 22.8 18.8 78 90 0.3 1.1 1012.9 0.0000 0.0000
07:00 22.9 18.7 77 26 0.6 1.1 1012.9 0.0000 0.0000
07:10 23.1 18.8 77 355 0.3 0.8 1012.9 0.0000 0.0000
07:19 23.3 19 77 57 0.3 0.8 1012.9 0.0000 0.0000
07:29 23.7 19.4 77 352 0.6 1.4 1013 0.0000 0.0000
07:40 24.3 19.8 76 45 0.3 0.8 1012.9 0.0000 0.0000
07:50 24.8 20.1 75 45 0.3 0.6 1012.9 0.0000 0.0000
07:59 25.4 20.2 73 6 0.6 1.1 1013 0.0000 0.0000
08:10 26.1 20 69 90 0.3 0.8 1012.9 0.0000 0.0000
08:20 26.7 20.5 69 270 0.3 1.1 1013 0.0000 0.0000
08:30 27.2 20.8 68 341 0.3 1.1 1012.9 0.0000 0.0000
08:40 27.7 20.3 64 315 0.6 1.4 1013 0.0000 0.0000
08:50 28.2 20 61 326 0.6 1.7 1013.1 0.0000 0.0000
09:00 28.6 19.8 59 108 0.6 1.7 1013.1 0.0000 0.0000
09:09 29.1 20.3 59 333 0.3 0.8 1013.1 0.0000 0.0000
09:20 29.5 20.1 57 270 0.6 1.7 1012.9 0.0000 0.0000
09:30 29.9 19.9 55 270 0.8 2.5 1012.8 0.0000 0.0000
09:40 30.2 19.9 54 260 1.1 3.3 1012.9 0.0000 0.0000
09:50 30.5 19.8 53 270 1.1 2.5 1012.8 0.0000 0.0000
10:00 30.7 19.4 51 270 1.1 2.5 1012.8 0.0000 0.0000
10:10 30.9 19.6 51 255 1.1 3.9 1013 0.0000 0.0000
10:20 31.2 19.5 50 258 0.8 2.8 1012.8 0.0000 0.0000
10:31 31.5 19.2 48 260 1.1 2.5 1012.8 0.0000 0.0000
10:41 31.8 19.8 49 253 0.8 2.8 1012.9 0.0000 0.0000
10:50 32 19.3 47 270 1.1 2.5 1012.9 0.0000 0.0000
11:01 32.2 19.1 46 256 0.8 2.8 1012.8 0.0000 0.0000
11:11 32.5 19.4 46 261 1.4 3.3 1012.8 0.0000 0.0000
11:21 32.7 18.9 44 270 0.8 2.2 1012.7 0.0000 0.0000
11:30 32.9 19.4 45 270 1.1 2.8 1012.8 0.0000 0.0000
11:41 33.2 19.3 44 260 1.7 5.3 1012.8 0.0000 0.0000
11:51 33.5 19.2 43 276 1.4 3.3 1012.7 0.0000 0.0000
12:01 33.6 19.3 43 270 1.1 2.5 1012.6 0.0000 0.0000
12:11 33.7 19 42 270 0.8 2.8 1012.4 0.0000 0.0000
12:21 33.8 19.1 42 254 0.8 2.5 1012.2 0.0000 0.0000
12:31 34 19.3 42 260 1.4 2.8 1012.3 0.0000 0.0000
12:41 34.2 19.5 42 48 0.6 1.7 1012.2 0.0000 0.0000
12:57 34.5 19.7 42 270 0.6 2.2 1012 0.0000 0.0000
13:07 34.7 19.5 41 270 1.1 3.1 1011.9 0.0000 0.0000
13:16 34.8 19.6 41 251 1.4 3.3 1011.9 0.0000 0.0000
13:27 34.9 19.7 41 270 0.6 1.4 1011.8 0.0000 0.0000
13:37 35 19.8 41 225 0.6 1.4 1011.7 0.0000 0.0000
13:47 35.1 20.3 42 270 0.8 2.5 1011.5 0.0000 0.0000
13:57 35.3 20 41 257 0.8 2.5 1011.5 0.0000 0.0000
14:07 35.5 20.2 41 283 0.8 2.2 1011.4 0.0000 0.0000
14:17 35.9 19.8 39 262 1.1 2.8 1011.3 0.0000 0.0000
14:27 36.1 19.5 38 270 1.1 2.2 1011.1 0.0000 0.0000
14:38 36.3 20.5 40 270 0.6 1.4 1010.9 0.0000 0.0000
14:47 36.3 19.3 37 350 1.1 2.5 1010.9 0.0000 0.0000
14:57 36.5 19.9 38 332 1.1 2.8 1010.8 0.0000 0.0000
15:07 36.6 19.5 37 330 1.4 4.7 1010.7 0.0000 0.0000
15:18 36.6 20 38 329 1.1 2.5 1010.7 0.0000 0.0000
15:28 36.6 20 38 338 0.6 1.1 1010.5 0.0000 0.0000
15:37 36.8 19.3 36 352 1.4 3.9 1010.6 0.0000 0.0000
15:48 37.2 19.6 36 315 1.4 3.9 1010.7 0.0000 0.0000
15:58 37.4 21.1 39 328 1.9 3.9 1010.7 0.0000 0.0000
16:08 36.9 21.1 40 5 1.7 3.3 1010.6 0.0000 0.0000
16:18 36.7 20.9 40 1 1.9 3.3 1010.6 0.0000 0.0000
16:28 36.1 20.8 41 355 2.2 3.6 1010.5 0.0000 0.0000
16:38 35.4 20.5 42 356 1.1 3.9 1010.6 0.0000 0.0000
16:48 35 20.6 43 352 1.9 3.9 1010.5 0.0000 0.0000
16:59 35 20.6 43 350 1.4 2.5 1010.6 0.0000 0.0000
17:08 34.9 20.5 43 332 1.4 2.2 1010.4 0.0000 0.0000
17:18 34.9 20.8 44 351 0.8 1.9 1010.5 0.0000 0.0000
17:28 34.8 20.4 43 358 1.7 2.8 1010.5 0.0000 0.0000
17:39 34.5 19.7 42 352 1.7 2.8 1010.5 0.0000 0.0000
17:48 34.2 19.1 41 343 1.7 3.1 1010.6 0.0000 0.0000
17:58 33.8 19.1 42 345 1.9 3.3 1010.5 0.0000 0.0000
18:09 33.5 19.2 43 349 1.4 3.1 1010.5 0.0000 0.0000
18:19 33.2 18.9 43 353 1.4 2.5 1010.6 0.0000 0.0000
18:29 32.8 18.9 44 344 1.4 2.8 1010.6 0.0000 0.0000
18:39 32.5 19 45 331 1.4 2.5 1010.5 0.0000 0.0000
18:49 32.2 18.8 45 344 1.1 1.4 1010.5 0.0000 0.0000
18:59 32 18.6 45 352 1.1 1.7 1010.4 0.0000 0.0000
19:09 31.8 18.8 46 352 1.1 1.7 1010.3 0.0000 0.0000
19:19 31.7 18.7 46 306 0.6 0.8 1010.4 0.0000 0.0000
19:29 31.5 19.2 48 270 0.6 1.1 1010.3 0.0000 0.0000
19:39 31.2 19.9 51 327 0.3 0.8 1010.3 0.0000 0.0000
19:49 30.9 19.6 51 270 0.6 0.8 1010.4 0.0000 0.0000
20:00 30.5 19.8 53 270 0.3 0.8 1010.3 0.0000 0.0000
20:09 30.1 19.8 54 329 0.3 0.6 1010.4 0.0000 0.0000
20:19 29.7 19.4 54 322 0.3 0.8 1010.4 0.0000 0.0000
20:30 29.2 19.2 55 270 0.6 1.1 1010.4 0.0000 0.0000
20:40 28.7 19.3 57 270 0.3 0.8 1010.3 0.0000 0.0000
20:49 28.3 19.2 58 315 0.3 1.1 1010.4 0.0000 0.0000
21:00 27.9 19.2 59 315 0.3 1.1 1010.4 0.0000 0.0000
21:10 27.5 19 60 270 0.6 0.8 1010.5 0.0000 0.0000
21:20 27.1 18.7 60 255 0.6 1.4 1010.6 0.0000 0.0000
21:29 26.8 18.9 62 270 0.3 0.8 1010.7 0.0000 0.0000
21:40 26.3 18.4 62 270 0.3 1.1 1010.7 0.0000 0.0000
21:50 26 18.4 63 270 0.3 1.1 1010.6 0.0000 0.0000
22:00 25.6 18.3 64 302 0.3 0.8 1010.7 0.0000 0.0000
22:10 25.3 18.3 65 310 0.3 0.8 1010.6 0.0000 0.0000
22:20 25 18.2 66 270 0.3 0.8 1010.6 0.0000 0.0000
22:30 24.7 18.2 67 270 0.3 0.8 1011 0.0000 0.0000
22:40 24.5 17.7 66 270 0.3 1.1 1010.9 0.0000 0.0000
22:51 24.3 18 68 315 0.3 0.8 1010.9 0.0000 0.0000
23:00 24.1 17.8 68 270 0.3 1.1 1010.9 0.0000 0.0000
23:10 24 17.7 68 270 0.3 0.8 1010.8 0.0000 0.0000
23:21 23.8 17.8 69 270 0.3 0.8 1010.9 0.0000 0.0000
23:31 23.7 17.4 68 270 0.3 0.8 1010.8 0.0000 0.0000
23:41 23.5 17.5 69 270 0.3 0.8 1010.8 0.0000 0.0000
23:50 23.4 17.4 69 270 0.3 0.8 1010.9 0.0000 0.0000

DAY STATISTIC

2021-07-30
TEMPERATURE
AVERAGE
28.4
HIGH
37.4
15:58
LOW
21.2
01:53
PRESSURE
AVERAGE
1011.9
HIGH
1013.4
00:03
LOW
1010.3
19:09
DEWPOINT
AVERAGE
19.1
HIGH
21.1
15:58
LOW
17.4
23:31
HUMIDITY
AVERAGE
60
HIGH
81
02:03
LOW
36
15:37
WIND SPEED
AVERAGE
0.7
HIGH
2.2
16:28
WIND GUST
AVERAGE
1.8
HIGH
5.3
11:41
WIND DIRECTION
PREVAILING
W
35%
N
17.5
NE
4.9
E
7.0
SE
15.4
S
3.5
SW
2.8
W
35.0
NW
14.0
PRECIPITATION
RAIN HOUR
0.0
RAIN DAY
0.0
TEMPERATURE (°C)
LOW
21.2
HIGH
37.4
AVERAGE
28.4
PRESSURE (hpa)
LOW
1010.3
HIGH
1013.4
AVERAGE
1011.9
DEVICE